createdAt,value
2017-10-16T00:00:54.182Z,963.41
2017-10-16T00:01:54.173Z,963.43
2017-10-16T00:02:54.164Z,963.38
2017-10-16T00:03:54.161Z,963.37
2017-10-16T00:04:54.147Z,963.36
2017-10-16T00:05:54.135Z,963.34
2017-10-16T00:06:54.126Z,963.35
2017-10-16T00:07:54.123Z,963.33
2017-10-16T00:08:54.108Z,963.34
2017-10-16T00:09:54.099Z,963.32
2017-10-16T00:10:54.091Z,963.3
2017-10-16T00:11:54.082Z,963.32
2017-10-16T00:12:54.086Z,963.28
2017-10-16T00:13:54.084Z,963.3
2017-10-16T00:14:54.054Z,963.28
2017-10-16T00:15:54.046Z,963.28
2017-10-16T00:16:54.034Z,963.23
2017-10-16T00:17:54.046Z,963.24
2017-10-16T00:18:54.017Z,963.22
2017-10-16T00:19:54.008Z,963.23
2017-10-16T00:20:54.018Z,963.22
2017-10-16T00:21:53.988Z,963.21
2017-10-16T00:22:53.989Z,963.23
2017-10-16T00:23:53.971Z,963.21
2017-10-16T00:24:53.960Z,963.2
2017-10-16T00:25:53.952Z,963.22
2017-10-16T00:26:53.943Z,963.27
2017-10-16T00:27:53.933Z,963.22
2017-10-16T00:28:53.924Z,963.21
2017-10-16T00:29:53.916Z,963.2
2017-10-16T00:30:53.906Z,963.21
2017-10-16T00:31:53.895Z,963.2
2017-10-16T00:32:53.887Z,963.2
2017-10-16T00:33:53.879Z,963.2
2017-10-16T00:34:53.881Z,963.17
2017-10-16T00:35:53.866Z,963.2
2017-10-16T00:36:53.851Z,963.19
2017-10-16T00:37:53.862Z,963.17
2017-10-16T00:38:53.831Z,963.16
2017-10-16T00:39:53.823Z,963.17
2017-10-16T00:40:53.832Z,963.15
2017-10-16T00:41:53.805Z,963.17
2017-10-16T00:42:53.796Z,963.17
2017-10-16T00:43:53.787Z,963.18
2017-10-16T00:44:53.778Z,963.15
2017-10-16T00:45:53.766Z,963.13
2017-10-16T00:46:53.759Z,963.14
2017-10-16T00:47:53.750Z,963.11
2017-10-16T00:48:53.742Z,963.07
2017-10-16T00:49:53.732Z,963.1
2017-10-16T00:50:53.724Z,963.13
2017-10-16T00:51:53.715Z,963.13
2017-10-16T00:52:53.704Z,963.12
2017-10-16T00:53:53.695Z,963.07
2017-10-16T00:54:53.695Z,963.08
2017-10-16T00:55:53.679Z,963.07
2017-10-16T00:56:53.669Z,963.02
2017-10-16T00:57:53.660Z,963.08
2017-10-16T00:58:53.651Z,963.08
2017-10-16T00:59:53.641Z,963.06
2017-10-16T01:00:59.839Z,963.07
2017-10-16T01:01:53.623Z,963.08
2017-10-16T01:02:53.616Z,963.08
2017-10-16T01:03:53.604Z,963.07
2017-10-16T01:04:53.597Z,963.1
2017-10-16T01:05:53.601Z,963.07
2017-10-16T01:06:53.579Z,963.08
2017-10-16T01:07:53.572Z,963.07
2017-10-16T01:08:53.559Z,963.04
2017-10-16T01:09:53.550Z,963.08
2017-10-16T01:10:53.542Z,963.08
2017-10-16T01:11:53.534Z,963.06
2017-10-16T01:12:53.531Z,963.03
2017-10-16T01:13:53.556Z,963.02
2017-10-16T01:14:53.512Z,963.03
2017-10-16T01:15:53.498Z,963.03
2017-10-16T01:16:53.488Z,963.01
2017-10-16T01:17:53.480Z,963
2017-10-16T01:18:53.471Z,962.96
2017-10-16T01:19:53.461Z,962.96
2017-10-16T01:20:53.453Z,962.92
2017-10-16T01:21:53.443Z,962.93
2017-10-16T01:22:53.435Z,962.95
2017-10-16T01:23:53.426Z,962.91
2017-10-16T01:24:53.430Z,962.89
2017-10-16T01:25:53.409Z,962.87
2017-10-16T01:26:53.399Z,962.85
2017-10-16T01:27:53.391Z,962.82
2017-10-16T01:28:53.383Z,962.83
2017-10-16T01:29:53.374Z,962.81
2017-10-16T01:30:53.364Z,962.82
2017-10-16T01:31:53.355Z,962.82
2017-10-16T01:32:53.345Z,962.81
2017-10-16T01:33:53.337Z,962.84
2017-10-16T01:34:53.329Z,962.83
2017-10-16T01:35:53.320Z,962.79
2017-10-16T01:36:53.312Z,962.8
2017-10-16T01:37:53.301Z,962.78
2017-10-16T01:38:53.294Z,962.79
2017-10-16T01:39:53.284Z,962.77
2017-10-16T01:40:53.274Z,962.8
2017-10-16T01:41:53.278Z,962.77
2017-10-16T01:42:53.258Z,962.8
2017-10-16T01:43:53.249Z,962.81
2017-10-16T01:44:53.240Z,962.81
2017-10-16T01:45:53.244Z,962.81
2017-10-16T01:46:53.222Z,962.78
2017-10-16T01:47:53.218Z,962.77
2017-10-16T01:48:53.209Z,962.81
2017-10-16T01:49:53.201Z,962.83
2017-10-16T01:50:53.188Z,962.84
2017-10-16T01:51:53.178Z,962.81
2017-10-16T01:52:53.169Z,962.81
2017-10-16T01:53:53.160Z,962.83
2017-10-16T01:54:53.152Z,962.82
2017-10-16T01:55:53.143Z,962.84
2017-10-16T01:56:53.134Z,962.88
2017-10-16T01:57:53.126Z,962.8
2017-10-16T01:58:53.117Z,962.83
2017-10-16T01:59:53.126Z,962.81
2017-10-16T02:00:53.100Z,962.78
2017-10-16T02:01:53.089Z,962.78
2017-10-16T02:02:53.080Z,962.77
2017-10-16T02:03:53.072Z,962.78
2017-10-16T02:04:53.064Z,962.75
2017-10-16T02:05:53.055Z,962.75
2017-10-16T02:06:53.047Z,962.74
2017-10-16T02:07:53.038Z,962.73
2017-10-16T02:08:53.029Z,962.7
2017-10-16T02:09:53.019Z,962.7
2017-10-16T02:10:53.011Z,962.68
2017-10-16T02:11:53.002Z,962.69
2017-10-16T02:12:52.994Z,962.71
2017-10-16T02:13:52.984Z,962.68
2017-10-16T02:14:52.977Z,962.73
2017-10-16T02:15:52.969Z,962.68
2017-10-16T02:16:52.971Z,962.67
2017-10-16T02:17:52.964Z,962.68
2017-10-16T02:18:52.940Z,962.68
2017-10-16T02:19:52.931Z,962.7
2017-10-16T02:20:52.924Z,962.7
2017-10-16T02:21:52.918Z,962.68
2017-10-16T02:22:52.906Z,962.71
2017-10-16T02:23:52.898Z,962.74
2017-10-16T02:24:52.889Z,962.72
2017-10-16T02:25:52.881Z,962.74
2017-10-16T02:26:52.876Z,962.74
2017-10-16T02:27:52.863Z,962.65
2017-10-16T02:28:52.855Z,962.69
2017-10-16T02:29:52.850Z,962.67
2017-10-16T02:30:52.863Z,962.7
2017-10-16T02:31:52.828Z,962.65
2017-10-16T02:32:52.818Z,962.69
2017-10-16T02:33:52.812Z,962.66
2017-10-16T02:34:52.805Z,962.7
2017-10-16T02:35:52.792Z,962.7
2017-10-16T02:36:52.785Z,962.72
2017-10-16T02:37:52.776Z,962.72
2017-10-16T02:38:52.767Z,962.76
2017-10-16T02:39:52.758Z,962.78
2017-10-16T02:40:52.766Z,962.77
2017-10-16T02:41:52.739Z,962.75
2017-10-16T02:42:52.733Z,962.78
2017-10-16T02:43:52.734Z,962.78
2017-10-16T02:44:52.714Z,962.79
2017-10-16T02:45:52.706Z,962.8
2017-10-16T02:46:52.695Z,962.79
2017-10-16T02:47:52.688Z,962.8
2017-10-16T02:48:52.682Z,962.78
2017-10-16T02:49:52.670Z,962.82
2017-10-16T02:50:52.663Z,962.79
2017-10-16T02:51:52.653Z,962.75
2017-10-16T02:52:52.643Z,962.73
2017-10-16T02:53:52.636Z,962.71
2017-10-16T02:54:52.626Z,962.72
2017-10-16T02:55:52.619Z,962.73
2017-10-16T02:56:52.609Z,962.72
2017-10-16T02:57:52.614Z,962.73
2017-10-16T02:58:52.591Z,962.75
2017-10-16T02:59:52.583Z,962.73
2017-10-16T03:00:52.574Z,962.73
2017-10-16T03:01:52.565Z,962.77
2017-10-16T03:02:52.561Z,962.77
2017-10-16T03:03:52.547Z,962.75
2017-10-16T03:04:52.539Z,962.76
2017-10-16T03:05:52.529Z,962.74
2017-10-16T03:06:52.521Z,962.72
2017-10-16T03:07:52.513Z,962.7
2017-10-16T03:08:52.504Z,962.73
2017-10-16T03:09:52.495Z,962.76
2017-10-16T03:10:52.487Z,962.74
2017-10-16T03:11:52.476Z,962.72
2017-10-16T03:12:52.468Z,962.73
2017-10-16T03:13:52.460Z,962.76
2017-10-16T03:14:52.450Z,962.73
2017-10-16T03:15:52.456Z,962.74
2017-10-16T03:16:52.433Z,962.71
2017-10-16T03:17:52.424Z,962.73
2017-10-16T03:18:52.418Z,962.69
2017-10-16T03:19:52.405Z,962.72
2017-10-16T03:20:52.399Z,962.73
2017-10-16T03:21:52.390Z,962.7
2017-10-16T03:22:52.380Z,962.66
2017-10-16T03:23:52.372Z,962.69
2017-10-16T03:24:52.362Z,962.7
2017-10-16T03:25:52.373Z,962.64
2017-10-16T03:26:52.346Z,962.63
2017-10-16T03:27:52.337Z,962.65
2017-10-16T03:28:52.332Z,962.63
2017-10-16T03:29:52.319Z,962.62
2017-10-16T03:30:52.318Z,962.66
2017-10-16T03:31:52.301Z,962.67
2017-10-16T03:32:52.294Z,962.61
2017-10-16T03:33:52.284Z,962.58
2017-10-16T03:34:52.278Z,962.65
2017-10-16T03:35:52.275Z,962.6
2017-10-16T03:36:52.257Z,962.68
2017-10-16T03:37:52.252Z,962.64
2017-10-16T03:38:52.247Z,962.68
2017-10-16T03:39:52.231Z,962.71
2017-10-16T03:40:52.222Z,962.69
2017-10-16T03:41:52.215Z,962.71
2017-10-16T03:42:52.205Z,962.76
2017-10-16T03:43:52.198Z,962.76
2017-10-16T03:44:52.188Z,962.77
2017-10-16T03:45:52.180Z,962.77
2017-10-16T03:46:52.171Z,962.77
2017-10-16T03:47:52.165Z,962.71
2017-10-16T03:48:52.152Z,962.73
2017-10-16T03:49:52.144Z,962.67
2017-10-16T03:50:52.136Z,962.7
2017-10-16T03:51:52.129Z,962.73
2017-10-16T03:52:52.118Z,962.66
2017-10-16T03:53:52.109Z,962.7
2017-10-16T03:54:52.101Z,962.71
2017-10-16T03:55:52.093Z,962.72
2017-10-16T03:56:52.084Z,962.67
2017-10-16T03:57:52.075Z,962.67
2017-10-16T03:58:52.072Z,962.64
2017-10-16T03:59:52.057Z,962.65
2017-10-16T04:00:52.049Z,962.67
2017-10-16T04:01:52.042Z,962.68
2017-10-16T04:02:52.048Z,962.67
2017-10-16T04:03:52.033Z,962.67
2017-10-16T04:04:52.013Z,962.69
2017-10-16T04:05:52.004Z,962.69
2017-10-16T04:06:51.997Z,962.67
2017-10-16T04:07:51.988Z,962.67
2017-10-16T04:08:51.977Z,962.65
2017-10-16T04:09:51.968Z,962.66
2017-10-16T04:10:51.960Z,962.7
2017-10-16T04:11:51.952Z,962.68
2017-10-16T04:12:51.943Z,962.66
2017-10-16T04:13:51.933Z,962.65
2017-10-16T04:14:51.925Z,962.67
2017-10-16T04:15:51.916Z,962.61
2017-10-16T04:16:51.906Z,962.65
2017-10-16T04:17:51.896Z,962.64
2017-10-16T04:18:51.890Z,962.64
2017-10-16T04:19:51.879Z,962.64
2017-10-16T04:20:51.874Z,962.66
2017-10-16T04:21:51.862Z,962.7
2017-10-16T04:22:51.854Z,962.68
2017-10-16T04:23:51.850Z,962.68
2017-10-16T04:24:51.835Z,962.69
2017-10-16T04:25:51.826Z,962.67
2017-10-16T04:26:51.819Z,962.67
2017-10-16T04:27:51.830Z,962.71
2017-10-16T04:28:51.799Z,962.7
2017-10-16T04:29:51.791Z,962.68
2017-10-16T04:30:51.782Z,962.66
2017-10-16T04:31:51.776Z,962.64
2017-10-16T04:32:51.763Z,962.71
2017-10-16T04:33:51.755Z,962.67
2017-10-16T04:34:51.746Z,962.68
2017-10-16T04:35:51.736Z,962.66
2017-10-16T04:36:51.729Z,962.65
2017-10-16T04:37:51.723Z,962.68
2017-10-16T04:38:51.711Z,962.62
2017-10-16T04:39:51.702Z,962.62
2017-10-16T04:40:51.693Z,962.6
2017-10-16T04:41:51.683Z,962.6
2017-10-16T04:42:51.674Z,962.59
2017-10-16T04:43:51.665Z,962.63
2017-10-16T04:44:51.658Z,962.6
2017-10-16T04:45:51.647Z,962.59
2017-10-16T04:46:51.637Z,962.61
2017-10-16T04:47:51.629Z,962.61
2017-10-16T04:48:51.620Z,962.62
2017-10-16T04:49:51.613Z,962.63
2017-10-16T04:50:51.603Z,962.61
2017-10-16T04:51:51.594Z,962.62
2017-10-16T04:52:51.587Z,962.61
2017-10-16T04:53:51.575Z,962.58
2017-10-16T04:54:51.582Z,962.57
2017-10-16T04:55:51.558Z,962.49
2017-10-16T04:56:51.557Z,962.52
2017-10-16T04:57:51.540Z,962.52
2017-10-16T04:58:51.534Z,962.53
2017-10-16T04:59:51.525Z,962.45
2017-10-16T05:00:51.515Z,962.5
2017-10-16T05:01:51.506Z,962.57
2017-10-16T05:02:51.498Z,962.59
2017-10-16T05:03:51.494Z,962.58
2017-10-16T05:04:51.484Z,962.59
2017-10-16T05:05:51.473Z,962.54
2017-10-16T05:06:51.467Z,962.58
2017-10-16T05:07:51.456Z,962.58
2017-10-16T05:08:51.445Z,962.59
2017-10-16T05:09:51.436Z,962.64
2017-10-16T05:10:51.429Z,962.67
2017-10-16T05:11:51.421Z,962.71
2017-10-16T05:12:51.411Z,962.69
2017-10-16T05:13:51.406Z,962.74
2017-10-16T05:14:51.393Z,962.77
2017-10-16T05:15:51.384Z,962.76
2017-10-16T05:16:51.376Z,962.72
2017-10-16T05:17:51.368Z,962.74
2017-10-16T05:18:51.360Z,962.76
2017-10-16T05:19:51.350Z,962.74
2017-10-16T05:20:51.342Z,962.73
2017-10-16T05:21:51.334Z,962.76
2017-10-16T05:22:51.326Z,962.76
2017-10-16T05:23:51.316Z,962.76
2017-10-16T05:24:51.307Z,962.76
2017-10-16T05:25:51.299Z,962.74
2017-10-16T05:26:51.290Z,962.75
2017-10-16T05:27:51.282Z,962.73
2017-10-16T05:28:51.274Z,962.69
2017-10-16T05:29:51.264Z,962.7
2017-10-16T05:30:51.279Z,962.71
2017-10-16T05:31:51.247Z,962.67
2017-10-16T05:32:51.239Z,962.7
2017-10-16T05:33:51.231Z,962.72
2017-10-16T05:34:51.223Z,962.71
2017-10-16T05:35:51.214Z,962.73
2017-10-16T05:36:51.204Z,962.74
2017-10-16T05:37:51.195Z,962.86
2017-10-16T05:38:51.189Z,962.85
2017-10-16T05:39:51.180Z,962.89
2017-10-16T05:40:51.187Z,962.87
2017-10-16T05:41:51.161Z,962.82
2017-10-16T05:42:51.153Z,962.8
2017-10-16T05:43:51.145Z,962.79
2017-10-16T05:44:51.134Z,962.81
2017-10-16T05:45:51.125Z,962.75
2017-10-16T05:46:51.118Z,962.76
2017-10-16T05:47:51.108Z,962.77
2017-10-16T05:48:51.100Z,962.73
2017-10-16T05:49:51.091Z,962.76
2017-10-16T05:50:51.083Z,962.76
2017-10-16T05:51:51.072Z,962.78
2017-10-16T05:52:51.063Z,962.76
2017-10-16T05:53:51.062Z,962.76
2017-10-16T05:54:51.046Z,962.81
2017-10-16T05:55:51.040Z,962.78
2017-10-16T05:56:51.030Z,962.78
2017-10-16T05:57:51.020Z,962.79
2017-10-16T05:58:51.014Z,962.82
2017-10-16T05:59:51.002Z,962.78
2017-10-16T06:00:50.993Z,962.78
2017-10-16T06:01:50.985Z,962.79
2017-10-16T06:02:50.977Z,962.83
2017-10-16T06:03:50.971Z,962.84
2017-10-16T06:04:50.960Z,962.81
2017-10-16T06:05:50.950Z,962.76
2017-10-16T06:06:50.941Z,962.81
2017-10-16T06:07:50.933Z,962.76
2017-10-16T06:08:50.923Z,962.74
2017-10-16T06:09:50.916Z,962.76
2017-10-16T06:10:50.905Z,962.78
2017-10-16T06:11:50.896Z,962.78
2017-10-16T06:12:50.896Z,962.74
2017-10-16T06:13:50.880Z,962.74
2017-10-16T06:14:50.881Z,962.78
2017-10-16T06:15:50.864Z,962.78
2017-10-16T06:16:50.856Z,962.79
2017-10-16T06:17:50.867Z,962.82
2017-10-16T06:18:50.835Z,962.87
2017-10-16T06:19:50.828Z,962.87
2017-10-16T06:20:50.821Z,962.82
2017-10-16T06:21:50.810Z,962.82
2017-10-16T06:22:50.802Z,962.8
2017-10-16T06:23:50.793Z,962.81
2017-10-16T06:24:50.785Z,962.8
2017-10-16T06:25:50.775Z,962.85
2017-10-16T06:26:50.769Z,962.88
2017-10-16T06:27:50.759Z,962.86
2017-10-16T06:28:50.755Z,962.87
2017-10-16T06:29:50.740Z,962.85
2017-10-16T06:30:50.732Z,962.88
2017-10-16T06:31:50.727Z,962.92
2017-10-16T06:32:50.715Z,962.94
2017-10-16T06:33:50.707Z,962.96
2017-10-16T06:34:50.698Z,962.93
2017-10-16T06:35:50.690Z,962.88
2017-10-16T06:36:50.680Z,962.88
2017-10-16T06:37:50.676Z,962.8
2017-10-16T06:38:50.664Z,962.85
2017-10-16T06:39:50.655Z,962.82
2017-10-16T06:40:50.645Z,962.77
2017-10-16T06:41:50.637Z,962.76
2017-10-16T06:42:50.630Z,962.78
2017-10-16T06:43:50.621Z,962.74
2017-10-16T06:44:50.612Z,962.79
2017-10-16T06:45:50.604Z,962.75
2017-10-16T06:46:50.594Z,962.75
2017-10-16T06:47:50.586Z,962.73
2017-10-16T06:48:50.578Z,962.73
2017-10-16T06:49:50.570Z,962.69
2017-10-16T06:50:50.561Z,962.7
2017-10-16T06:51:50.554Z,962.73
2017-10-16T06:52:50.567Z,962.7
2017-10-16T06:53:50.537Z,962.7
2017-10-16T06:54:50.528Z,962.7
2017-10-16T06:55:50.520Z,962.66
2017-10-16T06:56:50.513Z,962.67
2017-10-16T06:57:50.506Z,962.68
2017-10-16T06:58:50.501Z,962.64
2017-10-16T06:59:50.488Z,962.64
2017-10-16T07:00:50.480Z,962.67
2017-10-16T07:01:50.471Z,962.65
2017-10-16T07:02:50.464Z,962.67
2017-10-16T07:03:50.455Z,962.68
2017-10-16T07:04:50.448Z,962.68
2017-10-16T07:05:50.439Z,962.73
2017-10-16T07:06:50.436Z,962.75
2017-10-16T07:07:50.423Z,962.74
2017-10-16T07:08:50.414Z,962.79
2017-10-16T07:09:50.412Z,962.73
2017-10-16T07:10:50.399Z,962.8
2017-10-16T07:11:50.391Z,962.83
2017-10-16T07:12:50.384Z,962.77
2017-10-16T07:13:50.376Z,962.87
2017-10-16T07:14:50.367Z,962.85
2017-10-16T07:15:50.362Z,962.91
2017-10-16T07:16:50.352Z,962.9
2017-10-16T07:17:50.343Z,962.92
2017-10-16T07:18:50.339Z,962.92
2017-10-16T07:19:50.328Z,962.9
2017-10-16T07:20:50.321Z,962.85
2017-10-16T07:21:50.312Z,962.89
2017-10-16T07:22:50.307Z,962.85
2017-10-16T07:23:50.299Z,962.89
2017-10-16T07:24:50.290Z,962.83
2017-10-16T07:25:50.289Z,962.81
2017-10-16T07:26:50.276Z,962.89
2017-10-16T07:27:50.269Z,962.83
2017-10-16T07:28:50.260Z,962.82
2017-10-16T07:29:50.253Z,962.85
2017-10-16T07:30:50.244Z,962.87
2017-10-16T07:31:50.238Z,962.88
2017-10-16T07:32:50.254Z,962.89
2017-10-16T07:33:50.224Z,962.9
2017-10-16T07:34:50.214Z,962.92
2017-10-16T07:35:50.208Z,962.96
2017-10-16T07:36:50.200Z,962.97
2017-10-16T07:37:50.194Z,962.98
2017-10-16T07:38:50.184Z,963.03
2017-10-16T07:39:50.179Z,963.05
2017-10-16T07:40:50.173Z,963.1
2017-10-16T07:41:50.163Z,963.09
2017-10-16T07:42:50.170Z,963.07
2017-10-16T07:43:50.150Z,963.07
2017-10-16T07:44:50.141Z,963.02
2017-10-16T07:45:50.134Z,963.04
2017-10-16T07:46:50.128Z,963.09
2017-10-16T07:47:50.142Z,963.06
2017-10-16T07:48:50.114Z,963.05
2017-10-16T07:49:50.127Z,963.09
2017-10-16T07:50:50.099Z,963.12
2017-10-16T07:51:50.091Z,963.26
2017-10-16T07:52:50.083Z,963.26
2017-10-16T07:53:50.076Z,963.22
2017-10-16T07:54:50.070Z,963.25
2017-10-16T07:55:50.064Z,963.28
2017-10-16T07:56:50.055Z,963.34
2017-10-16T07:57:50.053Z,963.35
2017-10-16T07:58:50.043Z,963.39
2017-10-16T07:59:50.038Z,963.36
2017-10-16T08:00:50.028Z,963.41
2017-10-16T08:01:50.020Z,963.4
2017-10-16T08:02:50.013Z,963.4
2017-10-16T08:03:50.006Z,963.42
2017-10-16T08:04:50.000Z,963.42
2017-10-16T08:05:49.998Z,963.4
2017-10-16T08:06:49.986Z,963.46
2017-10-16T08:07:49.979Z,963.5
2017-10-16T08:08:49.976Z,963.49
2017-10-16T08:09:49.972Z,963.55
2017-10-16T08:10:49.962Z,963.55
2017-10-16T08:11:49.973Z,963.59
2017-10-16T08:12:49.944Z,963.59
2017-10-16T08:13:49.939Z,963.6
2017-10-16T08:14:49.931Z,963.58
2017-10-16T08:15:49.926Z,963.53
2017-10-16T08:16:49.938Z,963.55
2017-10-16T08:17:49.912Z,963.49
2017-10-16T08:18:49.904Z,963.51
2017-10-16T08:19:49.899Z,963.55
2017-10-16T08:20:49.893Z,963.46
2017-10-16T08:21:49.887Z,963.55
2017-10-16T08:22:49.880Z,963.51
2017-10-16T08:23:49.875Z,963.49
2017-10-16T08:24:49.869Z,963.54
2017-10-16T08:25:49.862Z,963.5
2017-10-16T08:26:49.855Z,963.51
2017-10-16T08:27:49.849Z,963.51
2017-10-16T08:28:49.844Z,963.48
2017-10-16T08:29:49.845Z,963.5
2017-10-16T08:30:49.831Z,963.51
2017-10-16T08:31:49.825Z,963.51
2017-10-16T08:32:49.820Z,963.53
2017-10-16T08:33:49.817Z,963.5
2017-10-16T08:34:49.807Z,963.53
2017-10-16T08:35:49.802Z,963.51
2017-10-16T08:36:49.794Z,963.5
2017-10-16T08:37:49.790Z,963.53
2017-10-16T08:38:49.783Z,963.54
2017-10-16T08:39:49.779Z,963.44
2017-10-16T08:40:49.772Z,963.48
2017-10-16T08:41:49.767Z,963.4
2017-10-16T08:42:49.761Z,963.47
2017-10-16T08:43:49.756Z,963.44
2017-10-16T08:44:49.750Z,963.48
2017-10-16T08:45:49.745Z,963.46
2017-10-16T08:46:49.741Z,963.48
2017-10-16T08:47:49.734Z,963.49
2017-10-16T08:48:49.732Z,963.44
2017-10-16T08:49:49.740Z,963.44
2017-10-16T08:50:49.717Z,963.43
2017-10-16T08:51:49.732Z,963.44
2017-10-16T08:52:49.707Z,963.41
2017-10-16T08:53:49.700Z,963.42
2017-10-16T08:54:49.694Z,963.43
2017-10-16T08:55:49.689Z,963.47
2017-10-16T08:56:49.683Z,963.48
2017-10-16T08:57:49.680Z,963.47
2017-10-16T08:58:49.673Z,963.47
2017-10-16T08:59:49.673Z,963.52
2017-10-16T09:00:49.671Z,963.49
2017-10-16T09:01:49.659Z,963.44
2017-10-16T09:02:49.653Z,963.46
2017-10-16T09:03:49.650Z,963.45
2017-10-16T09:04:49.642Z,963.49
2017-10-16T09:05:49.636Z,963.43
2017-10-16T09:06:49.637Z,963.45
2017-10-16T09:07:49.628Z,963.5
2017-10-16T09:08:49.622Z,963.45
2017-10-16T09:09:49.616Z,963.45
2017-10-16T09:10:49.612Z,963.45
2017-10-16T09:11:49.606Z,963.5
2017-10-16T09:12:49.602Z,963.42
2017-10-16T09:13:49.596Z,963.4
2017-10-16T09:14:49.594Z,963.43
2017-10-16T09:15:49.586Z,963.41
2017-10-16T09:16:49.592Z,963.38
2017-10-16T09:17:49.596Z,963.35
2017-10-16T09:18:49.572Z,963.39
2017-10-16T09:19:49.569Z,963.46
2017-10-16T09:20:49.573Z,963.42
2017-10-16T09:21:49.559Z,963.41
2017-10-16T09:22:49.564Z,963.4
2017-10-16T09:23:49.549Z,963.37
2017-10-16T09:24:49.549Z,963.44
2017-10-16T09:25:49.539Z,963.38
2017-10-16T09:26:49.533Z,963.41
2017-10-16T09:27:49.534Z,963.38
2017-10-16T09:28:49.525Z,963.36
2017-10-16T09:29:49.520Z,963.34
2017-10-16T09:30:49.516Z,963.35
2017-10-16T09:31:49.511Z,963.41
2017-10-16T09:32:49.505Z,963.4
2017-10-16T09:33:49.502Z,963.42
2017-10-16T09:34:49.498Z,963.52
2017-10-16T09:35:49.495Z,963.48
2017-10-16T09:36:49.508Z,963.43
2017-10-16T09:37:49.483Z,963.47
2017-10-16T09:38:49.477Z,963.54
2017-10-16T09:39:49.474Z,963.49
2017-10-16T09:40:49.469Z,963.5
2017-10-16T09:41:49.465Z,963.49
2017-10-16T09:42:49.462Z,963.49
2017-10-16T09:43:49.455Z,963.46
2017-10-16T09:44:49.452Z,963.53
2017-10-16T09:45:49.448Z,963.55
2017-10-16T09:46:49.458Z,963.59
2017-10-16T09:47:49.438Z,963.62
2017-10-16T09:48:49.435Z,963.62
2017-10-16T09:49:49.429Z,963.6
2017-10-16T09:50:49.425Z,963.55
2017-10-16T09:51:49.421Z,963.51
2017-10-16T09:52:49.417Z,963.55
2017-10-16T09:53:49.412Z,963.49
2017-10-16T09:54:49.408Z,963.5
2017-10-16T09:55:49.405Z,963.51
2017-10-16T09:56:49.401Z,963.5
2017-10-16T09:57:49.396Z,963.47
2017-10-16T09:58:49.392Z,963.48
2017-10-16T09:59:49.388Z,963.51
2017-10-16T10:00:49.384Z,963.48
2017-10-16T10:01:49.380Z,963.44
2017-10-16T10:02:49.377Z,963.48
2017-10-16T10:03:49.376Z,963.45
2017-10-16T10:04:49.375Z,963.45
2017-10-16T10:05:49.374Z,963.42
2017-10-16T10:06:49.363Z,963.43
2017-10-16T10:07:49.359Z,963.41
2017-10-16T10:08:49.355Z,963.41
2017-10-16T10:09:49.356Z,963.39
2017-10-16T10:10:49.350Z,963.39
2017-10-16T10:11:49.345Z,963.38
2017-10-16T10:12:49.354Z,963.43
2017-10-16T10:13:49.340Z,963.42
2017-10-16T10:14:49.335Z,963.47
2017-10-16T10:15:49.331Z,963.44
2017-10-16T10:16:49.329Z,963.47
2017-10-16T10:17:49.325Z,963.5
2017-10-16T10:18:49.329Z,963.5
2017-10-16T10:19:49.319Z,963.5
2017-10-16T10:20:49.315Z,963.51
2017-10-16T10:21:49.314Z,963.48
2017-10-16T10:22:49.312Z,963.5
2017-10-16T10:23:49.306Z,963.54
2017-10-16T10:24:49.327Z,963.47
2017-10-16T10:25:49.303Z,963.5
2017-10-16T10:26:49.299Z,963.51
2017-10-16T10:27:49.294Z,963.52
2017-10-16T10:28:49.297Z,963.5
2017-10-16T10:29:49.289Z,963.5
2017-10-16T10:30:49.288Z,963.54
2017-10-16T10:31:49.284Z,963.47
2017-10-16T10:32:49.281Z,963.54
2017-10-16T10:33:49.278Z,963.45
2017-10-16T10:34:49.274Z,963.52
2017-10-16T10:35:49.273Z,963.55
2017-10-16T10:36:49.271Z,963.54
2017-10-16T10:37:49.268Z,963.56
2017-10-16T10:38:49.265Z,963.55
2017-10-16T10:39:49.262Z,963.55
2017-10-16T10:40:49.276Z,963.62
2017-10-16T10:41:49.257Z,963.58
2017-10-16T10:42:49.254Z,963.57
2017-10-16T10:43:49.253Z,963.54
2017-10-16T10:44:49.251Z,963.5
2017-10-16T10:45:49.246Z,963.57
2017-10-16T10:46:49.246Z,963.53
2017-10-16T10:47:49.243Z,963.54
2017-10-16T10:48:49.239Z,963.52
2017-10-16T10:49:49.238Z,963.54
2017-10-16T10:50:49.246Z,963.48
2017-10-16T10:51:49.233Z,963.5
2017-10-16T10:52:49.235Z,963.47
2017-10-16T10:53:49.228Z,963.49
2017-10-16T10:54:49.227Z,963.51
2017-10-16T10:55:49.224Z,963.4
2017-10-16T10:56:49.222Z,963.41
2017-10-16T10:57:49.220Z,963.4
2017-10-16T10:58:49.217Z,963.43
2017-10-16T10:59:49.215Z,963.46
2017-10-16T11:00:49.213Z,963.37
2017-10-16T11:01:49.212Z,963.44
2017-10-16T11:02:49.209Z,963.41
2017-10-16T11:03:49.210Z,963.38
2017-10-16T11:04:49.205Z,963.4
2017-10-16T11:05:49.203Z,963.45
2017-10-16T11:06:49.201Z,963.38
2017-10-16T11:07:49.203Z,963.44
2017-10-16T11:08:49.197Z,963.44
2017-10-16T11:09:49.195Z,963.46
2017-10-16T11:10:49.196Z,963.44
2017-10-16T11:11:49.197Z,963.47
2017-10-16T11:12:49.191Z,963.46
2017-10-16T11:13:49.186Z,963.41
2017-10-16T11:14:49.185Z,963.36
2017-10-16T11:15:49.183Z,963.39
2017-10-16T11:16:49.185Z,963.41
2017-10-16T11:17:49.179Z,963.38
2017-10-16T11:18:49.178Z,963.39
2017-10-16T11:19:49.176Z,963.37
2017-10-16T11:20:49.179Z,963.35
2017-10-16T11:21:49.173Z,963.35
2017-10-16T11:22:49.171Z,963.32
2017-10-16T11:23:49.171Z,963.36
2017-10-16T11:24:49.167Z,963.27
2017-10-16T11:25:49.163Z,963.34
2017-10-16T11:26:49.163Z,963.32
2017-10-16T11:27:49.161Z,963.29
2017-10-16T11:28:49.165Z,963.28
2017-10-16T11:29:49.159Z,963.33
2017-10-16T11:30:49.156Z,963.31
2017-10-16T11:31:49.155Z,963.31
2017-10-16T11:32:49.154Z,963.28
2017-10-16T11:33:49.151Z,963.3
2017-10-16T11:34:49.177Z,963.32
2017-10-16T11:35:49.147Z,963.27
2017-10-16T11:36:49.145Z,963.3
2017-10-16T11:37:49.152Z,963.29
2017-10-16T11:38:49.147Z,963.26
2017-10-16T11:39:49.141Z,963.24
2017-10-16T11:40:49.141Z,963.22
2017-10-16T11:41:49.145Z,963.22
2017-10-16T11:42:49.137Z,963.24
2017-10-16T11:43:49.145Z,963.28
2017-10-16T11:44:49.134Z,963.29
2017-10-16T11:45:49.134Z,963.26
2017-10-16T11:46:49.132Z,963.25
2017-10-16T11:47:49.130Z,963.28
2017-10-16T11:48:49.129Z,963.3
2017-10-16T11:49:49.126Z,963.36
2017-10-16T11:50:49.124Z,963.32
2017-10-16T11:51:49.123Z,963.31
2017-10-16T11:52:49.142Z,963.34
2017-10-16T11:53:49.119Z,963.3
2017-10-16T11:54:49.118Z,963.33
2017-10-16T11:55:49.118Z,963.32
2017-10-16T11:56:49.133Z,963.37
2017-10-16T11:57:49.113Z,963.35
2017-10-16T11:58:49.134Z,963.33
2017-10-16T11:59:49.113Z,963.4
2017-10-16T12:00:49.111Z,963.36
2017-10-16T12:01:49.108Z,963.39
2017-10-16T12:02:49.107Z,963.33
2017-10-16T12:03:49.109Z,963.34
2017-10-16T12:04:49.113Z,963.33
2017-10-16T12:05:49.102Z,963.3
2017-10-16T12:06:49.101Z,963.36
2017-10-16T12:07:49.099Z,963.34
2017-10-16T12:08:49.097Z,963.36
2017-10-16T12:09:49.096Z,963.33
2017-10-16T12:10:49.116Z,963.28
2017-10-16T12:11:49.094Z,963.27
2017-10-16T12:12:49.094Z,963.3
2017-10-16T12:13:49.090Z,963.22
2017-10-16T12:14:49.089Z,963.25
2017-10-16T12:15:49.088Z,963.23
2017-10-16T12:16:49.085Z,963.23
2017-10-16T12:17:49.084Z,963.21
2017-10-16T12:18:49.098Z,963.2
2017-10-16T12:19:49.081Z,963.2
2017-10-16T12:20:49.080Z,963.17
2017-10-16T12:21:49.078Z,963.18
2017-10-16T12:22:49.078Z,963.21
2017-10-16T12:23:49.075Z,963.2
2017-10-16T12:24:49.100Z,963.21
2017-10-16T12:25:49.074Z,963.18
2017-10-16T12:26:49.070Z,963.21
2017-10-16T12:27:49.070Z,963.15
2017-10-16T12:28:49.068Z,963.21
2017-10-16T12:29:49.067Z,963.17
2017-10-16T12:30:49.069Z,963.14
2017-10-16T12:31:49.063Z,963.16